Time;durP1;ratioP1;P1;durP2;ratioP2;P2;SDS_P1;SDS_P2;PMS_P1;PMS_P2;Temp;Humidity;BMP_temperature;BMP_pressure;BME280_temperature;BME280_humidity;BME280_pressure;Samples;Min_cycle;Max_cycle;Signal;HPM_P1;HPM_P2
2022/11/03 00:01:43;;;;;;;4.03;1.20;;;11.00;19.80;;;;;;4956121;29;20043;-63
2022/11/03 00:04:12;;;;;;;5.82;0.80;;;11.00;21.40;;;;;;4956084;29;20046;-63
2022/11/03 00:06:38;;;;;;;4.25;0.75;;;11.00;23.20;;;;;;4955711;29;20047;-63
2022/11/03 00:09:06;;;;;;;7.65;1.38;;;11.00;20.20;;;;;;4955611;29;20047;-63
2022/11/03 00:11:33;;;;;;;2.05;1.02;;;11.00;21.00;;;;;;4955940;29;20039;-64
2022/11/03 00:13:59;;;;;;;1.27;0.70;;;11.10;17.40;;;;;;4955844;29;20051;-63
2022/11/03 00:16:25;;;;;;;5.82;1.30;;;11.00;22.20;;;;;;4955636;29;20043;-63
2022/11/03 00:18:51;;;;;;;7.80;1.25;;;11.30;24.10;;;;;;4955713;29;20047;-64
2022/11/03 00:21:17;;;;;;;5.45;1.17;;;11.00;21.30;;;;;;4938440;29;20047;-64
2022/11/03 00:23:43;;;;;;;1.95;0.85;;;11.00;18.90;;;;;;4955709;29;20089;-63
2022/11/03 00:26:15;;;;;;;3.72;0.95;;;11.00;18.50;;;;;;4955629;29;20047;-63
2022/11/03 00:28:43;;;;;;;4.10;0.88;;;11.00;19.00;;;;;;4955277;29;20109;-63
2022/11/03 00:31:14;;;;;;;3.90;1.05;;;11.00;19.60;;;;;;4955523;29;20039;-63
2022/11/03 00:33:40;;;;;;;;;;;10.90;24.60;;;;;;4955843;29;20073;-63
2022/11/03 00:36:07;;;;;;;4.93;0.82;;;10.90;26.70;;;;;;4955505;29;19926;-63
2022/11/03 00:38:33;;;;;;;3.55;1.25;;;10.90;25.30;;;;;;4955302;29;20106;-64
2022/11/03 00:41:01;;;;;;;2.05;0.77;;;11.00;25.10;;;;;;4954911;29;20059;-64
2022/11/03 00:43:29;;;;;;;1.20;0.70;;;10.90;22.10;;;;;;4955376;29;20075;-63
2022/11/03 00:45:55;;;;;;;1.88;0.70;;;10.90;22.70;;;;;;4937817;29;20058;-63
2022/11/03 00:48:33;;;;;;;1.88;0.98;;;10.90;26.10;;;;;;4955291;29;20537;-63
2022/11/03 00:51:10;;;;;;;5.82;1.13;;;10.90;25.50;;;;;;4937918;29;20428;-63
2022/11/03 00:53:42;;;;;;;3.15;0.98;;;10.90;26.90;;;;;;4955168;29;20038;-63
2022/11/03 00:56:30;;;;;;;3.78;0.65;;;10.90;27.70;;;;;;4954980;28;20035;-63
2022/11/03 00:58:58;;;;;;;4.03;1.00;;;10.80;33.10;;;;;;4954033;29;20098;-63
2022/11/03 01:01:25;;;;;;;7.20;1.10;;;11.00;30.80;;;;;;4954711;29;20039;-63
2022/11/03 01:06:49;;;;;;;1.25;0.90;;;11.00;32.00;;;;;;4954666;29;20114;-63
2022/11/03 01:09:34;;;;;;;3.72;1.00;;;10.90;35.60;;;;;;4954935;29;20469;-63
2022/11/03 01:12:08;;;;;;;5.75;0.70;;;10.80;36.30;;;;;;4954772;29;20069;-63
2022/11/03 01:14:51;;;;;;;5.72;1.25;;;10.80;35.00;;;;;;4937597;29;20491;-63
2022/11/03 01:17:25;;;;;;;2.30;0.88;;;10.70;41.50;;;;;;4954807;29;20050;-63
2022/11/03 01:19:51;;;;;;;2.08;1.00;;;10.80;48.90;;;;;;4954710;29;20046;-63
2022/11/03 01:22:18;;;;;;;2.97;1.45;;;11.00;49.40;;;;;;4954714;29;20403;-63
2022/11/03 01:24:44;;;;;;;4.95;1.25;;;10.70;48.10;;;;;;4954719;29;20047;-63
2022/11/03 01:27:15;;;;;;;1.23;0.65;;;10.70;52.20;;;;;;4954337;29;20050;-63
2022/11/03 01:29:41;;;;;;;3.35;1.65;;;10.80;54.90;;;;;;4954357;29;20047;-63
2022/11/03 01:32:07;;;;;;;3.00;0.90;;;10.60;53.60;;;;;;4954499;29;20109;-63
2022/11/03 01:34:34;;;;;;;4.32;1.00;;;10.60;55.80;;;;;;4954514;29;20047;-63
2022/11/03 01:37:00;;;;;;;3.60;0.90;;;10.60;56.00;;;;;;4954540;29;20047;-64
2022/11/03 01:39:25;;;;;;;4.57;0.85;;;10.60;59.90;;;;;;4954306;29;20049;-62
2022/11/03 01:41:52;;;;;;;2.72;1.30;;;10.60;59.10;;;;;;4954181;29;20427;-63
2022/11/03 01:44:17;;;;;;;6.82;0.98;;;10.60;58.30;;;;;;4936952;29;20070;-63
2022/11/03 01:46:46;;;;;;;4.10;0.82;;;10.60;58.10;;;;;;4954154;29;20043;-63
2022/11/03 01:49:15;;;;;;;3.13;1.00;;;10.60;60.40;;;;;;4954121;29;20043;-63
2022/11/03 01:51:45;;;;;;;3.80;0.75;;;10.60;57.60;;;;;;4954051;29;20090;-63
2022/11/03 01:54:17;;;;;;;1.83;0.93;;;10.60;60.10;;;;;;4954308;29;20043;-63
2022/11/03 01:56:45;;;;;;;1.30;0.73;;;10.70;60.80;;;;;;4954385;29;20070;-63
2022/11/03 01:59:13;;;;;;;2.25;1.13;;;10.80;57.60;;;;;;4954267;29;20047;-63
2022/11/03 02:01:39;;;;;;;1.95;1.00;;;10.70;59.30;;;;;;4961180;23;20059;-90
2022/11/03 02:04:12;;;;;;;3.67;0.93;;;10.60;61.00;;;;;;4894735;23;20052;-65
2022/11/03 02:06:38;;;;;;;4.25;0.80;;;10.60;61.90;;;;;;4935192;29;20052;-64
2022/11/03 02:09:09;;;;;;;4.32;1.63;;;10.60;62.90;;;;;;4935785;29;20071;-64
2022/11/03 02:15:20;;;;;;;2.60;1.20;;;10.70;63.40;;;;;;4196292;27;20060;-81
2022/11/03 02:17:48;;;;;;;7.38;1.35;;;10.70;64.80;;;;;;4902761;29;20055;-81
2022/11/03 02:20:22;;;;;;;8.25;1.63;;;10.70;66.40;;;;;;4872433;29;20048;-82
2022/11/03 02:23:16;;;;;;;4.25;0.85;;;10.60;64.60;;;;;;4902985;29;20044;-80
2022/11/03 02:25:54;;;;;;;3.13;1.25;;;10.80;64.60;;;;;;4887150;29;20044;-80
2022/11/03 02:28:23;;;;;;;3.80;0.85;;;10.80;61.10;;;;;;4902819;29;20403;-81
2022/11/03 02:34:47;;;;;;;1.40;0.65;;;10.80;60.20;;;;;;4905081;29;20048;-79
2022/11/03 02:37:19;;;;;;;2.45;1.10;;;10.80;60.50;;;;;;4902725;29;20055;-79
2022/11/03 02:40:09;;;;;;;7.13;1.10;;;10.80;60.70;;;;;;4902634;29;20083;-79
2022/11/03 02:42:37;;;;;;;2.35;0.77;;;10.80;60.40;;;;;;4902607;29;20088;-79
2022/11/03 02:45:07;;;;;;;3.65;1.13;;;10.80;58.80;;;;;;4871779;29;20079;-78
2022/11/03 02:51:19;;;;;;;1.65;0.70;;;10.80;61.00;;;;;;4919346;29;20380;-79
2022/11/03 02:54:14;;;;;;;5.80;1.48;;;10.80;61.90;;;;;;4886602;29;20051;-78
2022/11/03 02:56:53;;;;;;;2.95;1.30;;;10.80;60.40;;;;;;4898397;29;20062;-78
2022/11/03 02:59:26;;;;;;;4.35;1.27;;;10.80;64.80;;;;;;4886817;29;20478;-78
2022/11/03 03:02:08;;;;;;;2.67;1.00;;;10.80;64.50;;;;;;4901990;29;20192;-79
2022/11/03 03:08:25;;;;;;;3.88;1.00;;;10.80;62.70;;;;;;4692113;23;20078;-76
2022/11/03 03:11:09;;;;;;;3.38;1.02;;;10.90;61.90;;;;;;4922344;23;20055;-80
2022/11/03 03:13:35;;;;;;;6.43;1.67;;;10.80;64.30;;;;;;4918250;29;20492;-78
2022/11/03 03:16:10;;;;;;;4.00;0.80;;;11.10;63.90;;;;;;4871267;29;20051;-79
2022/11/03 03:18:42;;;;;;;5.82;1.50;;;10.90;66.00;;;;;;4917942;29;20044;-81
2022/11/03 03:21:31;;;;;;;4.57;0.88;;;10.80;63.90;;;;;;4886308;29;20488;-78
2022/11/03 03:24:01;;;;;;;2.70;1.30;;;10.90;65.10;;;;;;4902158;29;20425;-79
2022/11/03 03:29:49;;;;;;;9.57;1.63;;;10.80;69.70;;;;;;4973468;28;20047;-64
2022/11/03 03:32:17;;;;;;;6.75;1.65;;;10.80;69.20;;;;;;4975855;28;20046;-64
2022/11/03 03:34:46;;;;;;;6.32;1.48;;;10.90;68.50;;;;;;4958548;28;20042;-64
2022/11/03 03:37:15;;;;;;;3.78;0.98;;;10.80;73.30;;;;;;4975918;28;20042;-64
2022/11/03 03:39:45;;;;;;;3.00;1.05;;;11.10;74.50;;;;;;4975830;28;20545;-64
2022/11/03 03:42:13;;;;;;;5.35;1.23;;;10.90;73.40;;;;;;4958434;28;20050;-64
2022/11/03 03:44:40;;;;;;;5.13;1.05;;;10.90;73.90;;;;;;4963969;28;20494;-65
2022/11/03 03:47:13;;;;;;;2.92;1.05;;;10.90;74.30;;;;;;4975715;28;20078;-65
2022/11/03 03:49:39;;;;;;;6.20;1.23;;;10.90;74.00;;;;;;4975728;28;20537;-64
2022/11/03 03:52:08;;;;;;;7.38;1.33;;;10.90;75.30;;;;;;4957991;28;20049;-64
2022/11/03 03:54:34;;;;;;;1.33;0.73;;;10.80;75.90;;;;;;4975390;28;20042;-64
2022/11/03 03:57:04;;;;;;;6.45;1.30;;;10.80;78.70;;;;;;4975487;28;20057;-64
2022/11/03 03:59:30;;;;;;;4.82;1.30;;;10.80;81.50;;;;;;4975262;28;20122;-64
2022/11/03 04:01:57;;;;;;;2.65;1.05;;;10.80;81.50;;;;;;4975540;28;20759;-64
2022/11/03 04:04:22;;;;;;;5.70;1.05;;;10.90;80.30;;;;;;4975454;28;20035;-65
2022/11/03 04:06:48;;;;;;;1.27;0.82;;;10.80;80.10;;;;;;4975443;28;20047;-64
2022/11/03 04:09:14;;;;;;;5.22;1.08;;;10.80;80.70;;;;;;4975004;28;20058;-64
2022/11/03 04:22:48;;;;;;;7.53;1.27;;;10.70;80.70;;;;;;4975099;28;20506;-65
2022/11/03 04:25:14;;;;;;;0.85;0.52;;;10.70;82.20;;;;;;4975043;28;20081;-64
2022/11/03 04:27:40;;;;;;;3.30;0.93;;;10.90;83.20;;;;;;4974788;28;20661;-65
2022/11/03 04:30:13;;;;;;;4.25;0.93;;;10.70;85.30;;;;;;4974907;28;20051;-64
2022/11/03 04:32:38;;;;;;;2.88;1.23;;;10.70;84.30;;;;;;4973933;28;20035;-64
2022/11/03 04:35:14;;;;;;;4.30;1.27;;;10.70;86.50;;;;;;4957163;28;20173;-65
2022/11/03 04:37:39;;;;;;;3.72;1.02;;;10.70;86.30;;;;;;4974805;28;20111;-64
2022/11/03 04:40:13;;;;;;;4.03;1.00;;;10.70;89.10;;;;;;4974704;28;20574;-65
2022/11/03 04:42:39;;;;;;;6.95;1.10;;;10.70;87.80;;;;;;4974402;28;20046;-64
2022/11/03 04:45:18;;;;;;;3.65;1.65;;;10.60;88.50;;;;;;4974718;28;20034;-65
2022/11/03 04:47:43;;;;;;;1.70;0.98;;;10.60;90.00;;;;;;4974631;28;20136;-64
2022/11/03 04:50:20;;;;;;;3.10;1.38;;;10.50;91.70;;;;;;4974567;28;20760;-65
2022/11/03 04:52:48;;;;;;;3.25;1.23;;;10.60;91.20;;;;;;4974119;28;20035;-64
2022/11/03 04:55:16;;;;;;;2.63;0.80;;;10.50;91.20;;;;;;4957140;28;20122;-64
2022/11/03 04:57:42;;;;;;;5.35;0.93;;;10.50;91.90;;;;;;4956806;28;20062;-65
2022/11/03 05:00:17;;;;;;;2.60;1.00;;;10.40;91.60;;;;;;4974313;28;20049;-64
2022/11/03 05:02:45;;;;;;;2.25;1.02;;;10.50;92.70;;;;;;4956801;28;20045;-65
2022/11/03 05:05:19;;;;;;;9.95;1.15;;;10.50;92.90;;;;;;4974246;28;20050;-65
2022/11/03 05:07:51;;;;;;;1.98;0.73;;;10.40;92.70;;;;;;4973944;28;20043;-64
2022/11/03 05:10:22;;;;;;;1.98;0.80;;;10.40;93.40;;;;;;4956670;28;20054;-65
2022/11/03 05:12:48;;;;;;;;;;;10.50;93.60;;;;;;4956908;28;20047;-65
2022/11/03 05:15:51;;;;;;;6.28;0.88;;;10.50;93.60;;;;;;4974107;28;19944;-65
2022/11/03 05:18:25;;;;;;;5.55;1.40;;;10.50;93.80;;;;;;4895454;29;20044;-64
2022/11/03 05:20:52;;;;;;;3.08;1.15;;;10.50;93.10;;;;;;4963444;28;20050;-65
2022/11/03 05:23:20;;;;;;;2.63;0.93;;;10.50;92.70;;;;;;4956514;28;20054;-64
2022/11/03 05:25:52;;;;;;;4.57;1.48;;;10.50;92.90;;;;;;4973959;28;20043;-64
2022/11/03 05:28:25;;;;;;;5.95;0.93;;;10.60;94.10;;;;;;4973512;28;20126;-64
2022/11/03 05:30:52;;;;;;;3.83;1.00;;;10.50;92.80;;;;;;4956553;28;20626;-64
2022/11/03 05:33:25;;;;;;;6.60;0.90;;;10.50;93.00;;;;;;4973852;28;20038;-64
2022/11/03 05:35:50;;;;;;;1.75;0.98;;;10.50;93.10;;;;;;4973903;28;20051;-64
2022/11/03 05:38:19;;;;;;;1.95;0.73;;;10.50;93.20;;;;;;4973973;28;20488;-66
2022/11/03 05:40:48;;;;;;;2.97;0.82;;;10.60;92.80;;;;;;4973779;28;20043;-64
2022/11/03 05:43:14;;;;;;;4.80;0.98;;;10.60;93.00;;;;;;4973609;28;20050;-64
2022/11/03 05:45:40;;;;;;;9.75;1.38;;;11.20;92.40;;;;;;4973836;28;20440;-64
2022/11/03 05:48:19;;;;;;;1.88;0.73;;;10.60;93.40;;;;;;4973816;28;20038;-64
2022/11/03 05:50:45;;;;;;;1.75;1.20;;;10.60;92.40;;;;;;4973424;28;20058;-64
2022/11/03 05:53:37;;;;;;;4.22;0.98;;;10.90;92.90;;;;;;4973369;28;20043;-64
2022/11/03 05:56:05;;;;;;;1.55;0.98;;;10.60;92.30;;;;;;4973437;28;20045;-65
2022/11/03 05:58:37;;;;;;;7.45;1.25;;;10.60;91.90;;;;;;4973390;28;20039;-64
2022/11/03 06:01:17;;;;;;;3.03;1.00;;;10.60;91.90;;;;;;4973659;28;20034;-64
2022/11/03 06:03:44;;;;;;;2.05;1.05;;;10.60;92.20;;;;;;4973704;28;20427;-65
2022/11/03 06:06:34;;;;;;;3.67;1.02;;;10.60;92.30;;;;;;4956273;28;20055;-65
2022/11/03 06:09:12;;;;;;;2.38;1.10;;;10.60;92.90;;;;;;4973568;28;20394;-64
2022/11/03 06:11:38;;;;;;;3.22;1.10;;;10.60;93.30;;;;;;4973258;28;20093;-65
2022/11/03 06:14:31;;;;;;;2.30;1.00;;;10.60;92.40;;;;;;4973094;28;20054;-65
2022/11/03 06:17:06;;;;;;;2.63;0.82;;;10.60;92.50;;;;;;4969790;28;20133;-64
2022/11/03 06:19:36;;;;;;;6.50;1.20;;;10.60;92.70;;;;;;4973465;28;20043;-65
2022/11/03 06:22:14;;;;;;;2.15;0.73;;;10.60;92.50;;;;;;4973424;28;20050;-64
2022/11/03 06:24:40;;;;;;;2.28;0.70;;;10.60;92.70;;;;;;4973494;28;20109;-65
2022/11/03 06:27:12;;;;;;;6.30;1.00;;;10.60;92.50;;;;;;4955876;28;20130;-63
2022/11/03 06:29:38;;;;;;;2.97;1.15;;;10.60;92.70;;;;;;4972934;28;20090;-64
2022/11/03 06:32:08;;;;;;;2.10;1.02;;;10.60;93.30;;;;;;4973439;28;20447;-64
2022/11/03 06:34:47;;;;;;;2.63;0.85;;;10.60;92.40;;;;;;4973398;28;20039;-64
2022/11/03 06:37:32;;;;;;;3.58;0.80;;;10.60;92.60;;;;;;4973371;28;20039;-64
2022/11/03 06:40:09;;;;;;;3.97;1.30;;;10.60;93.70;;;;;;4955669;28;20042;-64
2022/11/03 06:42:36;;;;;;;3.10;0.80;;;10.50;92.50;;;;;;4973315;28;20070;-64
2022/11/03 06:45:19;;;;;;;3.05;0.68;;;10.60;92.60;;;;;;4973216;28;20109;-62
2022/11/03 06:47:45;;;;;;;0.95;0.63;;;10.60;92.90;;;;;;4973291;28;20038;-62
2022/11/03 06:50:37;;;;;;;4.88;1.50;;;10.60;93.00;;;;;;4972871;28;20054;-62
2022/11/03 06:53:03;;;;;;;7.13;1.00;;;10.70;92.30;;;;;;4973065;28;20039;-62
2022/11/03 06:55:31;;;;;;;4.50;1.35;;;10.70;92.10;;;;;;4974518;28;20062;-62
2022/11/03 06:58:19;;;;;;;3.08;1.67;;;10.80;92.70;;;;;;4976362;28;20074;-63
2022/11/03 07:00:44;;;;;;;9.07;1.15;;;10.90;92.30;;;;;;4976348;28;20070;-63
2022/11/03 07:03:22;;;;;;;4.05;0.98;;;10.80;92.60;;;;;;4976408;28;20081;-61
2022/11/03 07:05:48;;;;;;;1.85;0.85;;;10.80;92.40;;;;;;4959157;28;20051;-62
2022/11/03 07:08:23;;;;;;;2.47;1.45;;;11.10;94.70;;;;;;4927402;28;20412;-62
2022/11/03 07:11:29;;;;;;;3.67;1.05;;;11.00;95.90;;;;;;4958853;28;20086;-63
2022/11/03 07:13:58;;;;;;;3.00;1.23;;;11.00;96.10;;;;;;4957726;28;20054;-62
2022/11/03 07:16:40;;;;;;;2.92;0.98;;;11.10;94.60;;;;;;4958835;28;20405;-62
2022/11/03 07:19:18;;;;;;;2.45;1.08;;;11.10;93.40;;;;;;4958574;28;20047;-63
2022/11/03 07:21:48;;;;;;;3.05;1.10;;;11.00;93.50;;;;;;4976121;28;20511;-63
2022/11/03 07:24:22;;;;;;;2.20;0.98;;;11.00;93.60;;;;;;4976030;28;20106;-63
2022/11/03 07:27:11;;;;;;;6.45;1.10;;;11.00;94.10;;;;;;4975987;28;20075;-63
2022/11/03 07:29:37;;;;;;;5.40;1.10;;;11.10;94.10;;;;;;4975776;28;20066;-63
2022/11/03 07:32:12;;;;;;;3.08;0.90;;;11.10;94.80;;;;;;4975870;28;20047;-63
2022/11/03 07:34:38;;;;;;;6.85;2.00;;;11.20;94.30;;;;;;4958184;28;20046;-63
2022/11/03 07:37:04;;;;;;;9.48;1.42;;;11.30;94.90;;;;;;4975831;28;20042;-64
2022/11/03 07:39:36;;;;;;;1.27;0.80;;;11.30;94.60;;;;;;4975648;28;20066;-63
2022/11/03 07:42:12;;;;;;;1.70;1.00;;;11.40;94.40;;;;;;4975650;28;20047;-63
2022/11/03 07:44:38;;;;;;;2.58;0.80;;;11.40;93.30;;;;;;4975575;28;20394;-63
2022/11/03 07:47:13;;;;;;;3.70;1.27;;;11.50;92.70;;;;;;4958046;28;20046;-63
2022/11/03 07:49:39;;;;;;;3.83;1.52;;;11.50;92.60;;;;;;4975616;28;20050;-63
2022/11/03 07:52:09;;;;;;;9.68;2.15;;;11.50;92.70;;;;;;4975442;28;20122;-63
2022/11/03 07:54:35;;;;;;;2.77;0.93;;;11.90;92.40;;;;;;4975491;28;20065;-63
2022/11/03 07:57:40;;;;;;;3.95;1.10;;;11.60;92.30;;;;;;4975490;28;20556;-63
2022/11/03 08:00:10;;;;;;;5.28;1.40;;;11.70;92.20;;;;;;4938033;28;20055;-63
2022/11/03 08:02:54;;;;;;;4.18;1.50;;;11.80;92.00;;;;;;4975378;28;20050;-63
2022/11/03 08:05:21;;;;;;;3.08;1.10;;;11.80;92.70;;;;;;4974969;28;20039;-63
2022/11/03 08:07:46;;;;;;;4.10;1.00;;;11.90;91.90;;;;;;4974788;28;20051;-63
2022/11/03 08:10:12;;;;;;;2.08;1.10;;;11.90;92.30;;;;;;4975141;28;20129;-64
2022/11/03 08:12:38;;;;;;;1.83;0.85;;;11.90;91.80;;;;;;4957935;28;20043;-63
2022/11/03 08:15:04;;;;;;;3.00;1.17;;;12.00;90.90;;;;;;4975117;28;20039;-63
2022/11/03 08:17:30;;;;;;;4.88;1.35;;;12.00;91.20;;;;;;4974787;28;20081;-62
2022/11/03 08:19:56;;;;;;;2.75;0.90;;;12.10;90.90;;;;;;4941751;28;20078;-63
2022/11/03 08:22:24;;;;;;;3.75;1.17;;;12.70;92.80;;;;;;4974696;28;20039;-63
2022/11/03 08:24:50;;;;;;;2.60;1.00;;;12.20;89.00;;;;;;4975001;28;20039;-63
2022/11/03 08:27:16;;;;;;;2.28;1.17;;;12.30;87.50;;;;;;4975070;28;20050;-63
2022/11/03 08:29:42;;;;;;;3.83;1.00;;;12.30;88.10;;;;;;4957364;28;20561;-63
2022/11/03 08:32:07;;;;;;;5.53;1.42;;;12.30;89.20;;;;;;4957705;28;20046;-63
2022/11/03 08:34:33;;;;;;;3.47;1.45;;;12.30;87.80;;;;;;4974814;28;20093;-63
2022/11/03 08:36:59;;;;;;;3.95;1.20;;;12.40;88.00;;;;;;4974846;28;20047;-63
2022/11/03 08:39:24;;;;;;;2.50;1.15;;;12.50;88.10;;;;;;4974575;28;20035;-63
2022/11/03 08:41:50;;;;;;;6.40;1.45;;;12.40;86.70;;;;;;4974500;28;20034;-63
2022/11/03 08:44:16;;;;;;;3.63;1.08;;;12.40;87.30;;;;;;4974735;28;20054;-63
2022/11/03 08:46:41;;;;;;;2.83;1.10;;;12.40;88.50;;;;;;4974758;28;20059;-63
2022/11/03 08:49:07;;;;;;;7.78;2.22;;;12.40;89.00;;;;;;4974338;28;20478;-63
2022/11/03 08:51:33;;;;;;;3.00;0.98;;;12.50;89.60;;;;;;4974431;28;20394;-63
2022/11/03 08:53:58;;;;;;;2.63;0.90;;;12.50;89.40;;;;;;4974378;28;20064;-65
2022/11/03 08:56:24;;;;;;;3.28;1.08;;;12.50;89.40;;;;;;4957247;28;20498;-63
2022/11/03 08:58:50;;;;;;;5.22;1.20;;;12.50;89.00;;;;;;4974092;28;20039;-64
2022/11/03 09:01:15;;;;;;;3.30;1.20;;;12.60;86.10;;;;;;4957149;28;20074;-63
2022/11/03 09:03:41;;;;;;;4.35;1.20;;;12.70;88.50;;;;;;4974304;28;20050;-63
2022/11/03 09:06:08;;;;;;;5.20;1.23;;;12.70;85.00;;;;;;4957109;28;20086;-63
2022/11/03 09:08:34;;;;;;;1.63;0.90;;;12.80;82.50;;;;;;4974339;28;20113;-63
2022/11/03 09:11:00;;;;;;;6.45;1.55;;;12.90;80.90;;;;;;4957027;28;20126;-63
2022/11/03 09:13:25;;;;;;;5.57;1.52;;;12.90;77.10;;;;;;4974165;28;20043;-63
2022/11/03 09:15:51;;;;;;;8.45;1.73;;;13.00;74.00;;;;;;4973883;28;20046;-63
2022/11/03 09:18:17;;;;;;;3.50;1.20;;;13.00;74.00;;;;;;4973699;28;20055;-63
2022/11/03 09:20:43;;;;;;;6.22;1.60;;;13.10;75.70;;;;;;4974136;28;20031;-63
2022/11/03 09:23:08;;;;;;;5.65;1.15;;;13.10;70.90;;;;;;4973752;28;20051;-63
2022/11/03 09:25:34;;;;;;;9.32;1.70;;;13.20;70.00;;;;;;4974078;28;20046;-64
2022/11/03 09:28:00;;;;;;;7.22;1.23;;;13.20;69.70;;;;;;4973616;28;20051;-63
2022/11/03 09:30:25;;;;;;;4.57;1.20;;;13.30;61.70;;;;;;4973754;28;20186;-63
2022/11/03 09:32:51;;;;;;;6.88;1.27;;;13.30;62.80;;;;;;4973594;28;20057;-63
2022/11/03 09:35:17;;;;;;;2.70;1.35;;;13.40;57.70;;;;;;4973939;28;20043;-63
2022/11/03 09:37:43;;;;;;;1.45;0.90;;;13.40;61.80;;;;;;4973655;28;20113;-63
2022/11/03 09:40:10;;;;;;;3.40;1.20;;;13.50;60.10;;;;;;4956209;28;20038;-63
2022/11/03 09:42:37;;;;;;;2.35;0.98;;;13.50;56.10;;;;;;4973938;28;20047;-63
2022/11/03 09:45:04;;;;;;;3.92;1.05;;;13.60;54.40;;;;;;4973762;28;20502;-62
2022/11/03 09:47:36;;;;;;;6.55;1.55;;;13.70;48.30;;;;;;4973549;28;20047;-63
2022/11/03 09:50:03;;;;;;;1.08;0.70;;;13.80;54.30;;;;;;4973666;28;20057;-63
2022/11/03 09:52:30;;;;;;;2.47;1.17;;;13.80;47.80;;;;;;4973290;28;20042;-63
2022/11/03 09:54:56;;;;;;;3.80;1.60;;;13.80;47.80;;;;;;4973667;28;20418;-63
2022/11/03 09:57:22;;;;;;;3.47;1.38;;;13.90;56.00;;;;;;4956129;28;20050;-63
2022/11/03 09:59:49;;;;;;;6.22;1.13;;;14.10;49.80;;;;;;4973353;28;20478;-63
2022/11/03 10:02:21;;;;;;;1.92;0.82;;;14.20;31.60;;;;;;4973621;28;20066;-63
2022/11/03 10:04:48;;;;;;;2.15;0.82;;;14.30;27.80;;;;;;4973603;28;20055;-64
2022/11/03 10:07:13;;;;;;;2.70;1.63;;;14.40;28.40;;;;;;4973598;28;20451;-63
2022/11/03 10:09:46;;;;;;;2.60;1.27;;;14.50;13.00;;;;;;4973522;28;20078;-64
2022/11/03 10:12:12;;;;;;;4.70;1.25;;;14.60;26.10;;;;;;4973508;28;20047;-63
2022/11/03 10:14:44;;;;;;;3.28;1.45;;;14.70;14.10;;;;;;4955837;28;20054;-63
2022/11/03 10:17:16;;;;;;;5.43;1.42;;;14.60;8.50;;;;;;4973196;28;20097;-65
2022/11/03 10:19:42;;;;;;;4.25;1.00;;;14.70;11.10;;;;;;4973169;28;20043;-63
2022/11/03 10:22:08;;;;;;;2.90;1.05;;;14.60;1.00;;;;;;4973478;28;20042;-63
2022/11/03 10:24:34;;;;;;;2.13;0.98;;;14.70;1.00;;;;;;4973466;28;20035;-63
2022/11/03 10:27:00;;;;;;;8.63;1.02;;;14.70;1.00;;;;;;4973082;28;20559;-63
2022/11/03 10:29:27;;;;;;;4.85;1.20;;;14.90;1.00;;;;;;4973234;28;20051;-63
2022/11/03 10:31:57;;;;;;;2.30;1.20;;;15.00;1.00;;;;;;4976958;28;20038;-63
2022/11/03 10:34:38;;;;;;;4.03;1.20;;;15.20;1.00;;;;;;4976684;28;20049;-63
2022/11/03 10:37:23;;;;;;;4.85;1.15;;;15.30;1.00;;;;;;4976653;28;20281;-63
2022/11/03 10:39:51;;;;;;;3.15;1.13;;;15.40;1.00;;;;;;4976985;28;20061;-63
2022/11/03 10:42:31;;;;;;;2.47;1.10;;;15.40;1.00;;;;;;4976961;28;20046;-63
2022/11/03 10:45:17;;;;;;;1.95;1.15;;;15.40;1.00;;;;;;4976829;28;20047;-64
2022/11/03 10:47:43;;;;;;;2.35;0.95;;;15.40;1.00;;;;;;4976520;28;20035;-63
2022/11/03 10:50:29;;;;;;;2.65;1.00;;;15.30;1.00;;;;;;4959356;28;20054;-63
2022/11/03 10:52:55;;;;;;;2.80;0.98;;;15.20;1.00;;;;;;4976090;28;20129;-63
2022/11/03 10:55:23;;;;;;;2.25;1.33;;;15.20;1.00;;;;;;4976671;28;20477;-63
2022/11/03 10:57:49;;;;;;;7.93;0.98;;;15.20;1.00;;;;;;4976405;28;20050;-63
2022/11/03 11:00:18;;;;;;;2.15;1.23;;;15.20;1.00;;;;;;4976691;28;20561;-63
2022/11/03 11:02:46;;;;;;;4.22;1.40;;;15.30;1.00;;;;;;4976289;28;20039;-63
2022/11/03 11:05:19;;;;;;;0.95;0.65;;;15.30;1.00;;;;;;4976500;28;20638;-63
2022/11/03 11:07:45;;;;;;;2.72;1.15;;;15.30;1.00;;;;;;4958944;28;20051;-63
2022/11/03 11:10:25;;;;;;;3.13;0.93;;;15.30;1.00;;;;;;4959160;28;20437;-63
2022/11/03 11:13:17;;;;;;;5.25;1.10;;;15.30;1.00;;;;;;4958628;28;20042;-63
2022/11/03 11:15:47;;;;;;;2.88;1.08;;;15.50;1.00;;;;;;4959119;28;20047;-63
2022/11/03 11:18:33;;;;;;;2.85;0.98;;;15.80;1.00;;;;;;4975950;28;20042;-63
2022/11/03 11:20:59;;;;;;;1.25;0.70;;;15.90;1.00;;;;;;4936454;28;20039;-63
2022/11/03 11:23:28;;;;;;;8.40;1.38;;;16.00;1.00;;;;;;4958653;28;20097;-63
2022/11/03 11:26:09;;;;;;;4.97;1.00;;;16.10;1.00;;;;;;4976142;28;20402;-64
2022/11/03 11:28:35;;;;;;;;;;;16.30;1.00;;;;;;4976587;28;20069;-63
2022/11/03 11:31:21;;;;;;;2.13;0.70;;;16.40;99.90;;;;;;4975576;28;19944;-64
2022/11/03 11:33:47;;;;;;;3.88;0.98;;;16.40;99.90;;;;;;4975553;28;20063;-64
2022/11/03 11:36:23;;;;;;;2.17;0.95;;;16.30;99.90;;;;;;4975964;28;20038;-63
2022/11/03 11:38:51;;;;;;;3.75;0.68;;;16.20;99.90;;;;;;4975859;28;20501;-63
2022/11/03 11:41:17;;;;;;;2.95;0.77;;;16.00;99.90;;;;;;4975436;28;20075;-63
2022/11/03 11:43:43;;;;;;;2.10;0.52;;;15.90;99.90;;;;;;4975827;28;20367;-64
2022/11/03 11:46:39;;;;;;;0.90;0.52;;;15.80;99.90;;;;;;4975545;28;20049;-64
2022/11/03 11:49:08;;;;;;;3.08;1.08;;;15.80;99.90;;;;;;4975515;28;20042;-63
2022/11/03 11:51:36;;;;;;;2.92;1.15;;;15.70;99.90;;;;;;4975354;28;20038;-62
2022/11/03 11:54:14;;;;;;;2.72;0.65;;;15.60;99.90;;;;;;4975577;28;20042;-63
2022/11/03 11:56:46;;;;;;;1.13;0.65;;;15.60;99.90;;;;;;4975291;28;20090;-64
2022/11/03 11:59:18;;;;;;;2.88;0.88;;;15.50;99.90;;;;;;4975558;28;20046;-63
2022/11/03 12:01:48;;;;;;;1.85;0.80;;;15.50;99.90;;;;;;4975518;28;20526;-63
2022/11/03 12:04:19;;;;;;;2.85;0.73;;;15.50;99.90;;;;;;4975499;28;20390;-62
2022/11/03 12:06:45;;;;;;;2.50;0.60;;;15.50;99.90;;;;;;4975144;28;20046;-63
2022/11/03 12:09:20;;;;;;;2.40;0.80;;;15.40;99.90;;;;;;4975338;28;20049;-64
2022/11/03 12:11:52;;;;;;;1.33;0.70;;;15.40;99.90;;;;;;4957561;28;20054;-65
2022/11/03 12:14:30;;;;;;;4.15;1.17;;;15.40;99.90;;;;;;4957602;28;20073;-65
2022/11/03 12:16:58;;;;;;;4.95;0.95;;;15.30;99.90;;;;;;4975094;28;20106;-64
2022/11/03 12:19:40;;;;;;;2.30;0.70;;;15.30;99.90;;;;;;4957678;28;20119;-64
2022/11/03 12:22:22;;;;;;;3.35;0.77;;;15.20;99.90;;;;;;4975178;28;20066;-64
2022/11/03 12:24:57;;;;;;;6.25;0.98;;;15.20;99.90;;;;;;4975118;28;20114;-64
2022/11/03 12:27:23;;;;;;;7.28;1.10;;;15.20;99.90;;;;;;4974817;28;20108;-64
2022/11/03 12:29:53;;;;;;;2.15;0.68;;;15.10;99.90;;;;;;4974828;28;20058;-64
2022/11/03 12:32:19;;;;;;;2.90;0.80;;;15.10;99.90;;;;;;4974967;28;20047;-64
2022/11/03 12:34:45;;;;;;;2.45;0.90;;;15.10;99.90;;;;;;4957291;28;20051;-63
2022/11/03 12:37:11;;;;;;;2.28;1.02;;;15.00;99.90;;;;;;4974805;28;20050;-64
2022/11/03 12:39:37;;;;;;;5.25;1.00;;;15.00;99.90;;;;;;4974867;28;20512;-64
2022/11/03 12:42:04;;;;;;;0.93;0.68;;;14.90;99.90;;;;;;4974760;28;20066;-64
2022/11/03 12:44:30;;;;;;;2.60;0.80;;;14.90;99.90;;;;;;4974496;28;20051;-64
2022/11/03 12:46:55;;;;;;;4.15;1.00;;;14.90;99.90;;;;;;4957085;28;20461;-64
2022/11/03 12:49:21;;;;;;;4.80;1.30;;;14.80;99.90;;;;;;4974726;28;20130;-64
2022/11/03 12:51:47;;;;;;;3.28;0.80;;;14.80;99.90;;;;;;4974565;28;20061;-64
2022/11/03 12:54:12;;;;;;;8.25;1.50;;;14.80;99.90;;;;;;4973463;28;20127;-64
2022/11/03 12:56:38;;;;;;;2.40;0.88;;;14.70;99.90;;;;;;4974521;28;20072;-64
2022/11/03 12:59:04;;;;;;;3.65;0.80;;;14.80;99.90;;;;;;4974309;28;20065;-64
2022/11/03 13:01:29;;;;;;;4.25;1.02;;;14.80;99.90;;;;;;4957148;28;20047;-64
2022/11/03 13:03:55;;;;;;;4.00;1.80;;;14.70;99.90;;;;;;4974381;28;20047;-64
2022/11/03 13:06:21;;;;;;;1.67;0.75;;;14.70;99.90;;;;;;4974398;28;20565;-64
2022/11/03 13:08:48;;;;;;;0.98;0.70;;;14.80;99.90;;;;;;4974391;28;20482;-65
2022/11/03 13:13:58;;;;;;;3.28;0.90;;;14.80;99.90;;;;;;4973806;28;20074;-64
2022/11/03 13:16:24;;;;;;;1.63;0.65;;;14.80;99.90;;;;;;4956496;28;20039;-63
2022/11/03 13:18:49;;;;;;;3.05;0.95;;;14.90;99.90;;;;;;4974190;28;20035;-64
2022/11/03 13:21:15;;;;;;;3.38;0.88;;;14.90;99.90;;;;;;4973879;28;20150;-64
2022/11/03 13:23:41;;;;;;;5.78;1.02;;;14.90;99.90;;;;;;4956783;28;20050;-64
2022/11/03 13:26:07;;;;;;;2.45;0.98;;;15.00;99.90;;;;;;4973771;28;20130;-64
2022/11/03 13:28:33;;;;;;;3.80;1.17;;;15.00;99.90;;;;;;4940530;28;20038;-64
2022/11/03 13:30:58;;;;;;;1.08;0.60;;;15.10;99.90;;;;;;4956273;28;20696;-64
2022/11/03 13:33:24;;;;;;;2.67;1.10;;;15.10;99.90;;;;;;4973941;28;20055;-64
2022/11/03 13:35:50;;;;;;;5.03;0.82;;;15.10;99.90;;;;;;4973949;28;20078;-64
2022/11/03 13:38:15;;;;;;;3.13;0.98;;;15.10;99.90;;;;;;4973892;28;20046;-64
2022/11/03 13:40:41;;;;;;;2.72;0.88;;;15.10;99.90;;;;;;4956598;28;20524;-64